LRI582 NZWN-NZHN
Flight info
| Callsign | LRI582 |
|---|---|
| Flight time | 0h 44m |
| Altitude | 33000 |
| Route | ATVE2Q KAPTI Y273 LIKTU DROPT KICK3A |
| Aircraft | B772/H-SDE2E3FGHIJ5LORVWXY/LB1D1 |
Departure
| Time | 2026-04-22 16:43 |
|---|---|
| Airport | Wellington International Airport (NZWN) |
Arrival
| Time | 2026-04-22 17:28 |
|---|---|
| Airport | Hamilton International Airport (NZHN) |
| Time | Latitude | Longitude | Altitude | Speed | Heading |
|---|---|---|---|---|---|
| 2026-04-22 16:18 | -41.32861 | 174.80994 | 31 ft | 0 kts | 47° |
| 2026-04-22 16:35 | -41.32864 | 174.80991 | 31 ft | 2 kts | 47° |
| 2026-04-22 16:35 | -41.32874 | 174.80975 | 31 ft | 2 kts | 47° |
| 2026-04-22 16:35 | -41.32884 | 174.80960 | 31 ft | 2 kts | 47° |
| 2026-04-22 16:35 | -41.32894 | 174.80946 | 31 ft | 2 kts | 47° |
| 2026-04-22 16:36 | -41.32905 | 174.80931 | 31 ft | 2 kts | 47° |
| 2026-04-22 16:36 | -41.32915 | 174.80916 | 31 ft | 2 kts | 47° |
| 2026-04-22 16:36 | -41.32922 | 174.80907 | 31 ft | 0 kts | 47° |
| 2026-04-22 16:36 | -41.32932 | 174.80893 | 31 ft | 2 kts | 36° |
| 2026-04-22 16:37 | -41.32944 | 174.80884 | 31 ft | 2 kts | 21° |
| 2026-04-22 16:37 | -41.32959 | 174.80878 | 31 ft | 2 kts | 8° |
| 2026-04-22 16:37 | -41.32966 | 174.80878 | 31 ft | 0 kts | 2° |
| 2026-04-22 16:39 | -41.32952 | 174.80878 | 31 ft | 5 kts | 3° |
| 2026-04-22 16:39 | -41.32897 | 174.80882 | 31 ft | 9 kts | 3° |
| 2026-04-22 16:39 | -41.32831 | 174.80847 | 31 ft | 12 kts | 309° |
| 2026-04-22 16:40 | -41.32742 | 174.80815 | 31 ft | 15 kts | 359° |
| 2026-04-22 16:40 | -41.32628 | 174.80821 | 31 ft | 18 kts | 2° |
| 2026-04-22 16:40 | -41.32349 | 174.80839 | 35 ft | 20 kts | 2° |
| 2026-04-22 16:41 | -41.32209 | 174.80847 | 41 ft | 19 kts | 2° |
| 2026-04-22 16:41 | -41.32075 | 174.80856 | 46 ft | 18 kts | 2° |
| 2026-04-22 16:41 | -41.31958 | 174.80862 | 50 ft | 13 kts | 2° |
| 2026-04-22 16:41 | -41.31890 | 174.80803 | 50 ft | 9 kts | 280° |
| 2026-04-22 16:42 | -41.31926 | 174.80747 | 50 ft | 6 kts | 193° |
| 2026-04-22 16:42 | -41.31932 | 174.80745 | 50 ft | 0 kts | 187° |
| 2026-04-22 16:42 | -41.31964 | 174.80740 | 49 ft | 18 kts | 186° |
| 2026-04-22 16:42 | -41.32304 | 174.80716 | 37 ft | 86 kts | 183° |
| 2026-04-22 16:43 | -41.33102 | 174.80658 | 45 ft | 140 kts | 184° |
| 2026-04-22 16:43 | -41.34123 | 174.80589 | 471 ft | 151 kts | 186° |
| 2026-04-22 16:43 | -41.35158 | 174.80484 | 1384 ft | 147 kts | 182° |
| 2026-04-22 16:43 | -41.36162 | 174.80440 | 2037 ft | 147 kts | 180° |
| 2026-04-22 16:44 | -41.37194 | 174.80389 | 2558 ft | 149 kts | 183° |
| 2026-04-22 16:44 | -41.38144 | 174.79802 | 3044 ft | 157 kts | 211° |
| 2026-04-22 16:44 | -41.39115 | 174.79126 | 3339 ft | 168 kts | 197° |
| 2026-04-22 16:44 | -41.40244 | 174.78532 | 3740 ft | 180 kts | 198° |
| 2026-04-22 16:45 | -41.41419 | 174.77878 | 4231 ft | 189 kts | 199° |
| 2026-04-22 16:45 | -41.42695 | 174.77176 | 4539 ft | 208 kts | 199° |
| 2026-04-22 16:45 | -41.44056 | 174.76405 | 5006 ft | 218 kts | 199° |
| 2026-04-22 16:45 | -41.45495 | 174.75586 | 5481 ft | 229 kts | 199° |
| 2026-04-22 16:46 | -41.47015 | 174.74764 | 5821 ft | 244 kts | 199° |
| 2026-04-22 16:46 | -41.48607 | 174.73903 | 6412 ft | 249 kts | 200° |
| 2026-04-22 16:46 | -41.50164 | 174.72934 | 7144 ft | 250 kts | 210° |
| 2026-04-22 16:46 | -41.51382 | 174.71248 | 7598 ft | 267 kts | 233° |
| 2026-04-22 16:47 | -41.52009 | 174.68843 | 8078 ft | 284 kts | 260° |
| 2026-04-22 16:47 | -41.51763 | 174.66246 | 8840 ft | 289 kts | 285° |
| 2026-04-22 16:47 | -41.50719 | 174.63876 | 9191 ft | 307 kts | 311° |
| 2026-04-22 16:47 | -41.48965 | 174.62207 | 9771 ft | 312 kts | 336° |
| 2026-04-22 16:48 | -41.46882 | 174.61587 | 10245 ft | 316 kts | 360° |
| 2026-04-22 16:48 | -41.44671 | 174.62068 | 10310 ft | 330 kts | 24° |
| 2026-04-22 16:48 | -41.42694 | 174.63728 | 10299 ft | 343 kts | 45° |
| 2026-04-22 16:48 | -41.40835 | 174.65865 | 10524 ft | 359 kts | 36° |
| 2026-04-22 16:49 | -41.38591 | 174.67313 | 11144 ft | 363 kts | 23° |
| 2026-04-22 16:49 | -41.36212 | 174.68338 | 11820 ft | 364 kts | 19° |
| 2026-04-22 16:49 | -41.33741 | 174.69247 | 12501 ft | 367 kts | 17° |
| 2026-04-22 16:49 | -41.31292 | 174.70076 | 13221 ft | 369 kts | 17° |
| 2026-04-22 16:50 | -41.28759 | 174.70906 | 13943 ft | 372 kts | 17° |
| 2026-04-22 16:50 | -41.26268 | 174.71706 | 14773 ft | 373 kts | 17° |
| 2026-04-22 16:50 | -41.23718 | 174.72516 | 15553 ft | 377 kts | 17° |
| 2026-04-22 16:50 | -41.21159 | 174.73322 | 16352 ft | 381 kts | 17° |
| 2026-04-22 16:51 | -41.18598 | 174.74155 | 17122 ft | 383 kts | 20° |
| 2026-04-22 16:51 | -41.16078 | 174.75270 | 17854 ft | 385 kts | 24° |
| 2026-04-22 16:51 | -41.13521 | 174.76465 | 18610 ft | 389 kts | 24° |
| 2026-04-22 16:51 | -41.10973 | 174.77655 | 19333 ft | 392 kts | 24° |
| 2026-04-22 16:52 | -41.08377 | 174.78865 | 19985 ft | 398 kts | 24° |
| 2026-04-22 16:52 | -41.05752 | 174.80084 | 20627 ft | 402 kts | 24° |
| 2026-04-22 16:52 | -41.03123 | 174.81305 | 21299 ft | 405 kts | 24° |
| 2026-04-22 16:52 | -41.00445 | 174.82544 | 21921 ft | 410 kts | 24° |
| 2026-04-22 16:53 | -40.97742 | 174.83794 | 22547 ft | 413 kts | 24° |
| 2026-04-22 16:53 | -40.95025 | 174.85049 | 23135 ft | 418 kts | 24° |
| 2026-04-22 16:53 | -40.92283 | 174.86316 | 23645 ft | 424 kts | 24° |
| 2026-04-22 16:53 | -40.89469 | 174.87613 | 24155 ft | 430 kts | 24° |
| 2026-04-22 16:54 | -40.86615 | 174.88927 | 24661 ft | 435 kts | 23° |
| 2026-04-22 16:54 | -40.83756 | 174.90242 | 25197 ft | 438 kts | 23° |
| 2026-04-22 16:54 | -40.80889 | 174.91559 | 25749 ft | 441 kts | 23° |
| 2026-04-22 16:54 | -40.77990 | 174.92889 | 26215 ft | 446 kts | 23° |
| 2026-04-22 16:55 | -40.75052 | 174.94237 | 26743 ft | 448 kts | 23° |
| 2026-04-22 16:55 | -40.72070 | 174.95602 | 27169 ft | 454 kts | 22° |
| 2026-04-22 16:55 | -40.69103 | 174.96962 | 27546 ft | 460 kts | 22° |
| 2026-04-22 16:55 | -40.66061 | 174.98343 | 27981 ft | 465 kts | 20° |
| 2026-04-22 16:56 | -40.62855 | 174.99332 | 28372 ft | 473 kts | 11° |
| 2026-04-22 16:56 | -40.59581 | 174.99643 | 28781 ft | 478 kts | 2° |
| 2026-04-22 16:56 | -40.56234 | 174.99623 | 29087 ft | 484 kts | 359° |
| 2026-04-22 16:56 | -40.52871 | 174.99570 | 29492 ft | 486 kts | 359° |
| 2026-04-22 16:57 | -40.49514 | 174.99515 | 29983 ft | 485 kts | 0° |
| 2026-04-22 16:57 | -40.46137 | 174.99464 | 30391 ft | 485 kts | 358° |
| 2026-04-22 16:57 | -40.42781 | 174.99416 | 31052 ft | 477 kts | 358° |
| 2026-04-22 16:57 | -40.39543 | 174.99370 | 31914 ft | 464 kts | 358° |
| 2026-04-22 16:58 | -40.37413 | 174.99341 | 32457 ft | 456 kts | 359° |
| 2026-04-22 16:58 | -40.33196 | 174.99281 | 33080 ft | 453 kts | 359° |
| 2026-04-22 16:58 | -40.30053 | 174.99239 | 33225 ft | 456 kts | 359° |
| 2026-04-22 16:59 | -40.23558 | 174.99150 | 33227 ft | 474 kts | 359° |
| 2026-04-22 16:59 | -40.16867 | 174.99062 | 33235 ft | 492 kts | 359° |
| 2026-04-22 17:00 | -40.09924 | 174.98973 | 33233 ft | 502 kts | 359° |
| 2026-04-22 17:00 | -39.99446 | 174.98839 | 33244 ft | 504 kts | 359° |
| 2026-04-22 17:01 | -39.92445 | 174.98750 | 33240 ft | 502 kts | 359° |
| 2026-04-22 17:01 | -39.85485 | 174.98662 | 33238 ft | 499 kts | 359° |
| 2026-04-22 17:02 | -39.78525 | 174.98573 | 33230 ft | 499 kts | 359° |
| 2026-04-22 17:02 | -39.71556 | 174.98485 | 33224 ft | 497 kts | 358° |
| 2026-04-22 17:03 | -39.64665 | 174.98401 | 33226 ft | 498 kts | 358° |
| 2026-04-22 17:03 | -39.57737 | 174.98315 | 33217 ft | 496 kts | 358° |
| 2026-04-22 17:04 | -39.50834 | 174.98230 | 33213 ft | 496 kts | 358° |
| 2026-04-22 17:04 | -39.43935 | 174.98146 | 33220 ft | 495 kts | 357° |
| 2026-04-22 17:05 | -39.37047 | 174.98061 | 33216 ft | 494 kts | 357° |
| 2026-04-22 17:05 | -39.30192 | 174.97977 | 33208 ft | 494 kts | 356° |
| 2026-04-22 17:06 | -39.23373 | 174.97894 | 33194 ft | 489 kts | 356° |
| 2026-04-22 17:06 | -39.20014 | 174.97856 | 32787 ft | 481 kts | 356° |
| 2026-04-22 17:06 | -39.16671 | 174.97815 | 31858 ft | 487 kts | 355° |
| 2026-04-22 17:07 | -39.13277 | 174.97771 | 30943 ft | 492 kts | 355° |
| 2026-04-22 17:07 | -39.09853 | 174.97731 | 30384 ft | 487 kts | 354° |
| 2026-04-22 17:07 | -39.06499 | 174.97693 | 29854 ft | 483 kts | 354° |
| 2026-04-22 17:07 | -39.03130 | 174.97653 | 29298 ft | 479 kts | 354° |
| 2026-04-22 17:08 | -38.99828 | 174.97613 | 28673 ft | 476 kts | 354° |
| 2026-04-22 17:08 | -38.96506 | 174.97575 | 28066 ft | 471 kts | 354° |
| 2026-04-22 17:08 | -38.93248 | 174.97537 | 27496 ft | 466 kts | 354° |
| 2026-04-22 17:08 | -38.90053 | 174.97499 | 26928 ft | 461 kts | 354° |
| 2026-04-22 17:09 | -38.86857 | 174.97463 | 26367 ft | 455 kts | 354° |
| 2026-04-22 17:09 | -38.83679 | 174.97426 | 25798 ft | 450 kts | 354° |
| 2026-04-22 17:09 | -38.81611 | 174.97401 | 25420 ft | 446 kts | 354° |
| 2026-04-22 17:09 | -38.77490 | 174.97353 | 24691 ft | 439 kts | 355° |
| 2026-04-22 17:10 | -38.74466 | 174.97317 | 24114 ft | 434 kts | 355° |
| 2026-04-22 17:10 | -38.71452 | 174.97282 | 23535 ft | 429 kts | 355° |
| 2026-04-22 17:10 | -38.68528 | 174.97249 | 23013 ft | 423 kts | 355° |
| 2026-04-22 17:10 | -38.65578 | 174.97214 | 22467 ft | 417 kts | 355° |
| 2026-04-22 17:11 | -38.62701 | 174.97180 | 21941 ft | 412 kts | 355° |
| 2026-04-22 17:11 | -38.59857 | 174.97147 | 21421 ft | 407 kts | 355° |
| 2026-04-22 17:11 | -38.57057 | 174.97258 | 20905 ft | 405 kts | 2° |
| 2026-04-22 17:11 | -38.54300 | 174.97981 | 20393 ft | 406 kts | 13° |
| 2026-04-22 17:12 | -38.51685 | 174.99339 | 19864 ft | 407 kts | 25° |
| 2026-04-22 17:12 | -38.49309 | 175.01286 | 19341 ft | 407 kts | 36° |
| 2026-04-22 17:12 | -38.47155 | 175.03677 | 18802 ft | 405 kts | 40° |
| 2026-04-22 17:12 | -38.45086 | 175.06093 | 18287 ft | 402 kts | 40° |
| 2026-04-22 17:13 | -38.43048 | 175.08482 | 17774 ft | 399 kts | 41° |
| 2026-04-22 17:13 | -38.41034 | 175.10844 | 17274 ft | 395 kts | 41° |
| 2026-04-22 17:13 | -38.38995 | 175.13234 | 16756 ft | 392 kts | 41° |
| 2026-04-22 17:13 | -38.37008 | 175.15564 | 16252 ft | 389 kts | 41° |
| 2026-04-22 17:14 | -38.35016 | 175.17899 | 15754 ft | 386 kts | 42° |
| 2026-04-22 17:14 | -38.33068 | 175.20180 | 15255 ft | 383 kts | 42° |
| 2026-04-22 17:14 | -38.31119 | 175.22461 | 14754 ft | 379 kts | 42° |
| 2026-04-22 17:14 | -38.29175 | 175.24734 | 14268 ft | 376 kts | 42° |
| 2026-04-22 17:15 | -38.27890 | 175.26237 | 13933 ft | 374 kts | 42° |
| 2026-04-22 17:15 | -38.25349 | 175.29205 | 13273 ft | 370 kts | 43° |
| 2026-04-22 17:15 | -38.23348 | 175.31251 | 12744 ft | 367 kts | 32° |
| 2026-04-22 17:15 | -38.21075 | 175.32666 | 12133 ft | 366 kts | 19° |
| 2026-04-22 17:16 | -38.18601 | 175.33380 | 11601 ft | 363 kts | 7° |
| 2026-04-22 17:16 | -38.16097 | 175.33733 | 11128 ft | 359 kts | 5° |
| 2026-04-22 17:16 | -38.13617 | 175.34044 | 10649 ft | 356 kts | 5° |
| 2026-04-22 17:16 | -38.11173 | 175.34345 | 10392 ft | 346 kts | 5° |
| 2026-04-22 17:17 | -38.08849 | 175.34631 | 10335 ft | 332 kts | 5° |
| 2026-04-22 17:17 | -38.06582 | 175.34924 | 10228 ft | 319 kts | 8° |
| 2026-04-22 17:17 | -38.04459 | 175.35524 | 10128 ft | 309 kts | 16° |
| 2026-04-22 17:17 | -38.02397 | 175.36270 | 10003 ft | 300 kts | 17° |
| 2026-04-22 17:18 | -38.00401 | 175.37006 | 9685 ft | 298 kts | 17° |
| 2026-04-22 17:18 | -37.98406 | 175.37733 | 9301 ft | 298 kts | 17° |
| 2026-04-22 17:18 | -37.96431 | 175.38451 | 8956 ft | 294 kts | 17° |
| 2026-04-22 17:18 | -37.94484 | 175.39156 | 8658 ft | 289 kts | 17° |
| 2026-04-22 17:19 | -37.90686 | 175.40529 | 8028 ft | 280 kts | 17° |
| 2026-04-22 17:19 | -37.86988 | 175.41866 | 7429 ft | 272 kts | 18° |
| 2026-04-22 17:20 | -37.83372 | 175.43173 | 6822 ft | 270 kts | 18° |
| 2026-04-22 17:20 | -37.79777 | 175.44470 | 6231 ft | 267 kts | 18° |
| 2026-04-22 17:21 | -37.77974 | 175.45120 | 5940 ft | 266 kts | 18° |
| 2026-04-22 17:21 | -37.74441 | 175.46393 | 5354 ft | 264 kts | 19° |
| 2026-04-22 17:22 | -37.70924 | 175.47641 | 4784 ft | 263 kts | 15° |
| 2026-04-22 17:22 | -37.69076 | 175.47583 | 4462 ft | 267 kts | 346° |
| 2026-04-22 17:22 | -37.66489 | 175.44544 | 3997 ft | 260 kts | 287° |
| 2026-04-22 17:23 | -37.66315 | 175.42297 | 3607 ft | 256 kts | 256° |
| 2026-04-22 17:23 | -37.68290 | 175.39032 | 3072 ft | 228 kts | 199° |
| 2026-04-22 17:23 | -37.69786 | 175.38693 | 2862 ft | 211 kts | 173° |
| 2026-04-22 17:24 | -37.71187 | 175.38686 | 2685 ft | 190 kts | 183° |
| 2026-04-22 17:24 | -37.72416 | 175.38359 | 2493 ft | 172 kts | 189° |
| 2026-04-22 17:24 | -37.73518 | 175.37979 | 2329 ft | 157 kts | 190° |
| 2026-04-22 17:24 | -37.74544 | 175.37610 | 2174 ft | 150 kts | 190° |
| 2026-04-22 17:25 | -37.75538 | 175.37253 | 2022 ft | 147 kts | 190° |
| 2026-04-22 17:25 | -37.76514 | 175.36900 | 1871 ft | 147 kts | 190° |
| 2026-04-22 17:25 | -37.77502 | 175.36543 | 1713 ft | 146 kts | 191° |
| 2026-04-22 17:25 | -37.78475 | 175.36191 | 1560 ft | 146 kts | 191° |
| 2026-04-22 17:26 | -37.79445 | 175.35840 | 1403 ft | 139 kts | 191° |
| 2026-04-22 17:26 | -37.80352 | 175.35512 | 1223 ft | 133 kts | 192° |
| 2026-04-22 17:26 | -37.81234 | 175.35191 | 1028 ft | 130 kts | 192° |
| 2026-04-22 17:26 | -37.82092 | 175.34891 | 820 ft | 127 kts | 192° |
| 2026-04-22 17:27 | -37.82961 | 175.34581 | 609 ft | 128 kts | 194° |
| 2026-04-22 17:27 | -37.83810 | 175.34268 | 468 ft | 127 kts | 194° |
| 2026-04-22 17:27 | -37.84672 | 175.33954 | 322 ft | 127 kts | 194° |
| 2026-04-22 17:27 | -37.85524 | 175.33643 | 225 ft | 128 kts | 195° |
| 2026-04-22 17:28 | -37.86342 | 175.33348 | 193 ft | 109 kts | 196° |
| 2026-04-22 17:28 | -37.86884 | 175.33151 | 189 ft | 48 kts | 200° |
| 2026-04-22 17:28 | -37.87169 | 175.33040 | 190 ft | 34 kts | 194° |
| 2026-04-22 17:28 | -37.87339 | 175.32985 | 191 ft | 3 kts | 199° |
| 2026-04-22 17:29 | -37.87349 | 175.32980 | 191 ft | 6 kts | 199° |
| 2026-04-22 17:29 | -37.87438 | 175.32977 | 189 ft | 17 kts | 169° |
| 2026-04-22 17:29 | -37.87436 | 175.32945 | 189 ft | 12 kts | 6° |
| 2026-04-22 17:29 | -37.87301 | 175.32996 | 191 ft | 26 kts | 17° |
| 2026-04-22 17:30 | -37.87112 | 175.33063 | 190 ft | 24 kts | 16° |
| 2026-04-22 17:30 | -37.86941 | 175.33125 | 189 ft | 26 kts | 16° |
| 2026-04-22 17:30 | -37.86770 | 175.33188 | 189 ft | 24 kts | 16° |
| 2026-04-22 17:30 | -37.86618 | 175.33246 | 190 ft | 19 kts | 17° |
| 2026-04-22 17:31 | -37.86549 | 175.33318 | 191 ft | 12 kts | 83° |
| 2026-04-22 17:31 | -37.86561 | 175.33420 | 190 ft | 10 kts | 107° |
| 2026-04-22 17:31 | -37.86587 | 175.33501 | 190 ft | 4 kts | 116° |
| 2026-04-22 17:31 | -37.86603 | 175.33540 | 191 ft | 0 kts | 119° |